createdAt,value
2016-12-15T09:36:11.628Z,938
2016-12-15T09:36:39.424Z,938.11
2016-12-15T09:37:07.232Z,938.11
2016-12-15T09:37:34.904Z,938.09
2016-12-15T09:38:02.603Z,938.06
2016-12-15T09:38:30.314Z,938.15
2016-12-15T09:38:58.026Z,938.15
2016-12-15T09:39:25.752Z,938.16
2016-12-15T09:39:53.543Z,938.14
2016-12-15T09:40:21.228Z,938.16
2016-12-15T09:40:49.022Z,938.17
2016-12-15T09:41:16.768Z,938.18
2016-12-15T09:41:44.556Z,938.14
2016-12-15T09:42:12.277Z,938.18
2016-12-15T09:42:39.966Z,938.15
2016-12-15T09:43:07.677Z,938.19
2016-12-15T09:43:35.597Z,938.2
2016-12-15T09:44:03.415Z,938.15
2016-12-15T09:44:31.094Z,938.16
2016-12-15T09:44:58.927Z,938.15
2016-12-15T09:45:26.609Z,938.13
2016-12-15T09:45:54.306Z,938.13
2016-12-15T09:46:22.004Z,938.12
2016-12-15T09:46:49.702Z,938.13
2016-12-15T09:47:17.427Z,938.08
2016-12-15T09:47:45.245Z,938.1
2016-12-15T09:48:12.952Z,938.13
2016-12-15T09:48:40.622Z,938.13
2016-12-15T09:49:08.343Z,938.13
2016-12-15T09:49:36.045Z,938.15
2016-12-15T09:50:03.776Z,938.14
2016-12-15T09:50:31.488Z,938.13
2016-12-15T09:50:59.209Z,938.12
2016-12-15T09:51:26.933Z,938.2
2016-12-15T09:51:54.742Z,938.17
2016-12-15T09:52:22.565Z,938.21
2016-12-15T09:52:50.546Z,938.23
2016-12-15T09:53:18.259Z,938.23
2016-12-15T09:53:46.037Z,938.2
2016-12-15T09:54:13.733Z,938.17
2016-12-15T09:54:41.635Z,938.19
2016-12-15T09:55:09.431Z,938.2
2016-12-15T09:55:37.157Z,938.21
2016-12-15T09:56:04.932Z,938.19
2016-12-15T09:56:32.745Z,938.21
2016-12-15T09:57:00.477Z,938.18
2016-12-15T09:57:28.167Z,938.17
2016-12-15T09:57:55.897Z,938.19
2016-12-15T09:58:23.829Z,938.19
2016-12-15T09:58:51.611Z,938.2
2016-12-15T09:59:19.413Z,938.22
2016-12-15T09:59:47.196Z,938.19
2016-12-15T10:00:14.985Z,938.18
2016-12-15T10:00:42.684Z,938.16
2016-12-15T10:01:10.392Z,938.18
2016-12-15T10:01:38.189Z,938.2
2016-12-15T10:02:06.079Z,938.19
2016-12-15T10:02:33.769Z,938.22
2016-12-15T10:03:01.576Z,938.19
2016-12-15T10:03:29.276Z,938.19
2016-12-15T10:03:57.087Z,938.19
2016-12-15T10:04:24.923Z,938.2
2016-12-15T10:04:52.629Z,938.2
2016-12-15T10:05:20.360Z,938.18
2016-12-15T10:05:48.051Z,938.19
2016-12-15T10:06:15.989Z,938.25
2016-12-15T10:06:43.678Z,938.2
2016-12-15T10:07:11.530Z,938.19
2016-12-15T10:07:39.245Z,938.19
2016-12-15T10:08:07.157Z,938.23
2016-12-15T10:08:34.934Z,938.24
2016-12-15T10:09:02.710Z,938.21
2016-12-15T10:09:30.464Z,938.2
2016-12-15T10:09:58.268Z,938.24
2016-12-15T10:10:26.000Z,938.29
2016-12-15T10:10:53.707Z,938.28
2016-12-15T10:11:21.418Z,938.28
2016-12-15T10:11:49.113Z,938.28
2016-12-15T10:12:17.013Z,938.32
2016-12-15T10:12:44.784Z,938.29
2016-12-15T10:13:12.507Z,938.31
2016-12-15T10:13:40.315Z,938.31
2016-12-15T10:14:08.029Z,938.32
2016-12-15T10:14:35.814Z,938.32
2016-12-15T10:15:03.556Z,938.23
2016-12-15T10:15:31.257Z,938.35
2016-12-15T10:15:59.169Z,938.31
2016-12-15T10:16:26.867Z,938.27
2016-12-15T10:16:54.659Z,938.3
2016-12-15T10:17:22.361Z,938.34
2016-12-15T10:17:50.075Z,938.3
2016-12-15T10:18:17.911Z,938.34
2016-12-15T10:18:45.708Z,938.38
2016-12-15T10:19:13.475Z,938.37
2016-12-15T10:19:41.189Z,938.32
2016-12-15T10:20:09.073Z,938.36
2016-12-15T10:20:36.958Z,938.38
2016-12-15T10:21:04.699Z,938.38
2016-12-15T10:21:32.417Z,938.36
2016-12-15T10:22:00.229Z,938.42
2016-12-15T10:22:27.936Z,938.43
2016-12-15T10:22:55.635Z,938.4
2016-12-15T10:23:23.334Z,938.44
2016-12-15T10:23:51.118Z,938.35
2016-12-15T10:24:18.926Z,938.45
2016-12-15T10:24:46.604Z,938.36
2016-12-15T10:25:14.334Z,938.37
2016-12-15T10:25:42.087Z,938.34
2016-12-15T10:26:09.961Z,938.4
2016-12-15T10:26:37.660Z,938.41
2016-12-15T10:27:05.337Z,938.33
2016-12-15T10:27:33.172Z,938.42
2016-12-15T10:28:00.885Z,938.23
2016-12-15T10:28:28.621Z,938.43
2016-12-15T10:28:56.327Z,938.42
2016-12-15T10:29:24.154Z,938.41
2016-12-15T10:29:51.831Z,938.5
2016-12-15T10:30:19.553Z,938.39
2016-12-15T10:30:47.371Z,938.42
2016-12-15T10:31:15.179Z,938.48
2016-12-15T10:31:42.975Z,938.44
2016-12-15T10:32:10.776Z,938.42
2016-12-15T10:32:38.508Z,938.49
2016-12-15T10:33:06.210Z,938.52
2016-12-15T10:33:33.899Z,938.47
2016-12-15T10:34:01.604Z,938.55
2016-12-15T10:34:29.479Z,938.53
2016-12-15T10:34:57.300Z,938.5
2016-12-15T10:35:25.103Z,938.49
2016-12-15T10:35:52.802Z,938.53
2016-12-15T10:36:20.491Z,938.53
2016-12-15T10:36:48.183Z,938.54
2016-12-15T10:37:15.866Z,938.52
2016-12-15T10:37:43.696Z,938.54
2016-12-15T10:38:11.453Z,938.52
2016-12-15T10:38:39.169Z,938.57
2016-12-15T10:39:07.031Z,938.51
2016-12-15T10:39:34.925Z,938.45
2016-12-15T10:40:02.612Z,938.54
2016-12-15T10:40:30.451Z,938.56
2016-12-15T10:40:58.146Z,938.57
2016-12-15T10:41:25.832Z,938.55
2016-12-15T10:41:53.614Z,938.56
2016-12-15T10:42:21.325Z,938.56
2016-12-15T10:42:49.047Z,938.51
2016-12-15T10:43:17.056Z,938.57
2016-12-15T10:43:44.843Z,938.58
2016-12-15T10:44:12.542Z,938.59
2016-12-15T10:44:40.307Z,938.57
2016-12-15T10:45:08.027Z,938.58
2016-12-15T10:45:35.946Z,938.59
2016-12-15T10:46:03.662Z,938.63
2016-12-15T10:46:31.397Z,938.65
2016-12-15T10:46:59.089Z,938.63
2016-12-15T10:47:26.779Z,938.64
2016-12-15T10:47:54.889Z,938.66
2016-12-15T10:48:22.687Z,938.61
2016-12-15T10:48:50.601Z,938.67
2016-12-15T10:49:18.387Z,938.7
2016-12-15T10:49:46.100Z,938.7
2016-12-15T10:50:13.827Z,938.6
2016-12-15T10:50:41.730Z,938.72
2016-12-15T10:51:09.629Z,938.68
2016-12-15T10:51:37.418Z,938.68
2016-12-15T10:52:05.133Z,938.75
2016-12-15T10:52:32.832Z,938.74
2016-12-15T10:53:00.726Z,938.7
2016-12-15T10:53:28.554Z,938.73
2016-12-15T10:53:56.273Z,938.71
2016-12-15T10:54:23.984Z,938.74
2016-12-15T10:54:51.711Z,938.75
2016-12-15T10:55:19.510Z,938.76
2016-12-15T10:55:47.359Z,938.8
2016-12-15T10:56:15.246Z,938.72
2016-12-15T10:56:42.944Z,938.7
2016-12-15T10:57:10.637Z,938.75
2016-12-15T10:57:38.437Z,938.71
2016-12-15T10:58:06.120Z,938.68
2016-12-15T10:58:33.939Z,938.76
2016-12-15T10:59:01.640Z,938.74
2016-12-15T10:59:29.532Z,938.73
2016-12-15T10:59:57.203Z,938.74
2016-12-15T11:00:25.042Z,938.81
2016-12-15T11:00:53.041Z,938.8
2016-12-15T11:01:20.804Z,938.79
2016-12-15T11:01:48.712Z,938.75
2016-12-15T11:02:16.518Z,938.79
2016-12-15T11:02:44.364Z,938.71
2016-12-15T11:03:12.364Z,938.82
2016-12-15T11:03:40.190Z,938.81
2016-12-15T11:04:07.903Z,938.79
2016-12-15T11:04:35.691Z,938.81
2016-12-15T11:05:03.419Z,938.74
2016-12-15T11:05:31.110Z,938.81
2016-12-15T11:05:59.104Z,938.74
2016-12-15T11:06:26.809Z,938.74
2016-12-15T11:06:54.703Z,938.76
2016-12-15T11:07:22.482Z,938.79
2016-12-15T11:07:50.231Z,938.8
2016-12-15T11:08:18.023Z,938.79
2016-12-15T11:08:45.822Z,938.81
2016-12-15T11:09:13.539Z,938.85
2016-12-15T11:09:41.234Z,938.88
2016-12-15T11:10:08.944Z,938.81
2016-12-15T11:10:36.728Z,938.86
2016-12-15T11:11:04.525Z,938.83
2016-12-15T11:11:32.301Z,938.82
2016-12-15T11:12:00.110Z,938.8
2016-12-15T11:12:27.825Z,938.82
2016-12-15T11:12:55.548Z,938.7
2016-12-15T11:13:23.255Z,938.77
2016-12-15T11:13:51.108Z,938.79
2016-12-15T11:14:18.822Z,938.76
2016-12-15T11:14:46.625Z,938.79
2016-12-15T11:15:14.526Z,938.77
2016-12-15T11:15:42.539Z,938.86
2016-12-15T11:16:10.362Z,938.82
2016-12-15T11:16:38.075Z,938.81
2016-12-15T11:17:05.816Z,938.86
2016-12-15T11:17:33.585Z,938.83
2016-12-15T11:18:01.303Z,938.85
2016-12-15T11:18:29.166Z,938.83
2016-12-15T11:18:56.870Z,938.92
2016-12-15T11:19:24.563Z,938.87
2016-12-15T11:19:52.374Z,938.9
2016-12-15T11:20:20.261Z,938.85
2016-12-15T11:20:48.139Z,938.83
2016-12-15T11:21:16.132Z,938.89
2016-12-15T11:21:43.864Z,938.88
2016-12-15T11:22:11.667Z,938.89
2016-12-15T11:22:39.555Z,938.91
2016-12-15T11:23:07.381Z,938.96
2016-12-15T11:23:35.195Z,938.89
2016-12-15T11:24:02.908Z,938.96
2016-12-15T11:24:30.825Z,938.99
2016-12-15T11:24:58.601Z,938.93
2016-12-15T11:25:26.329Z,938.95
2016-12-15T11:25:54.041Z,938.99
2016-12-15T11:26:21.947Z,938.97
2016-12-15T11:26:49.843Z,938.99
2016-12-15T11:27:17.551Z,939
2016-12-15T11:27:45.260Z,939.04
2016-12-15T11:28:12.954Z,939.02
2016-12-15T11:28:40.749Z,939.01
2016-12-15T11:29:08.625Z,939.02
2016-12-15T11:29:36.454Z,939.06
2016-12-15T11:30:04.234Z,939.03
2016-12-15T11:30:32.125Z,939.02
2016-12-15T11:30:59.961Z,938.94
2016-12-15T11:31:27.776Z,939.02
2016-12-15T11:31:55.665Z,939.06
2016-12-15T11:32:23.467Z,939.1
2016-12-15T11:32:51.191Z,939.06
2016-12-15T11:33:18.947Z,939.08
2016-12-15T11:33:46.683Z,939.17
2016-12-15T11:34:14.624Z,939.28
2016-12-15T11:34:42.442Z,939.15
2016-12-15T11:35:10.252Z,939.15
2016-12-15T11:35:37.961Z,939.14
2016-12-15T11:36:05.790Z,939.16
2016-12-15T11:36:33.579Z,939.14
2016-12-15T11:37:01.291Z,939.2
2016-12-15T11:37:29.019Z,939.31
2016-12-15T11:37:56.701Z,939.13
2016-12-15T11:38:24.584Z,939.21
2016-12-15T11:38:52.459Z,939.21
2016-12-15T11:39:20.173Z,939.18
2016-12-15T11:39:47.938Z,939.21
2016-12-15T11:40:15.655Z,939.21
2016-12-15T11:40:43.370Z,939.09
2016-12-15T11:41:11.275Z,939.1
2016-12-15T11:41:39.052Z,939.27
2016-12-15T11:42:06.867Z,939.14
2016-12-15T11:42:34.616Z,939.22
2016-12-15T11:43:02.362Z,939.23
2016-12-15T11:43:30.155Z,939.19
2016-12-15T11:43:57.949Z,939.22
2016-12-15T11:44:25.783Z,939.21
2016-12-15T11:44:53.556Z,939.25
2016-12-15T11:45:21.368Z,939.26
2016-12-15T11:45:49.205Z,939.25
2016-12-15T11:46:17.105Z,939.26
2016-12-15T11:46:44.885Z,939.24
2016-12-15T11:47:12.612Z,939.29
2016-12-15T11:47:40.507Z,939.3
2016-12-15T11:48:08.432Z,939.23
2016-12-15T11:48:36.219Z,939.29
2016-12-15T11:49:03.914Z,939.33
2016-12-15T11:49:31.741Z,939.24
2016-12-15T11:49:59.507Z,939.32
2016-12-15T11:50:27.209Z,939.03
2016-12-15T11:50:55.095Z,939.31
2016-12-15T11:51:23.310Z,939.3
2016-12-15T11:51:51.138Z,939.24
2016-12-15T11:52:18.891Z,939.24
2016-12-15T11:52:46.575Z,939.29
2016-12-15T11:53:14.291Z,939.3
2016-12-15T11:53:42.099Z,939.32
2016-12-15T11:54:09.796Z,939.27
2016-12-15T11:54:37.537Z,939.31
2016-12-15T11:55:05.356Z,939.3
2016-12-15T11:55:33.170Z,939.34
2016-12-15T11:56:01.160Z,939.29
2016-12-15T11:56:28.879Z,939.39
2016-12-15T11:56:56.584Z,939.34
2016-12-15T11:57:24.382Z,939.35
2016-12-15T11:57:52.193Z,939.19
2016-12-15T11:58:19.986Z,939.35
2016-12-15T11:58:47.728Z,939.29
2016-12-15T11:59:15.608Z,939.39
2016-12-15T11:59:43.337Z,939.32
2016-12-15T12:00:11.028Z,939.37
2016-12-15T12:00:38.830Z,939.3
2016-12-15T12:01:06.748Z,939.26
2016-12-15T12:01:34.480Z,939.3
2016-12-15T12:02:02.343Z,939.39
2016-12-15T12:02:30.271Z,939.31
2016-12-15T12:02:58.066Z,939.37
2016-12-15T12:03:25.861Z,939.25
2016-12-15T12:03:53.793Z,939.3
2016-12-15T12:04:21.556Z,939.33
2016-12-15T12:04:49.236Z,939.34
2016-12-15T12:05:17.170Z,939.36
2016-12-15T12:05:44.882Z,939.28
2016-12-15T12:06:12.771Z,939.33
2016-12-15T12:06:40.563Z,939.29
2016-12-15T12:07:08.337Z,939.35
2016-12-15T12:07:36.089Z,939.35
2016-12-15T12:08:03.900Z,939.37
2016-12-15T12:08:31.785Z,939.22
2016-12-15T12:08:59.627Z,939.31
2016-12-15T12:09:27.333Z,939.36
2016-12-15T12:09:55.157Z,939.37
2016-12-15T12:10:22.959Z,939.33
2016-12-15T12:10:50.660Z,939.34
2016-12-15T12:11:18.369Z,939.3
2016-12-15T12:11:46.264Z,939.36
2016-12-15T12:12:13.993Z,939.35
2016-12-15T12:12:41.669Z,939.33
2016-12-15T12:13:09.579Z,939.32
2016-12-15T12:13:37.389Z,939.34
2016-12-15T12:14:05.299Z,939.33
2016-12-15T12:14:33.074Z,939.37
2016-12-15T12:15:00.797Z,939.3
2016-12-15T12:15:28.635Z,939.45
2016-12-15T12:15:56.427Z,939.46
2016-12-15T12:16:24.233Z,939.3
2016-12-15T12:16:51.946Z,939.4
2016-12-15T12:17:19.635Z,939.41
2016-12-15T12:17:47.309Z,939.55
2016-12-15T12:18:15.242Z,939.38
2016-12-15T12:18:42.950Z,939.5
2016-12-15T12:19:10.768Z,939.36
2016-12-15T12:19:38.477Z,939.37
2016-12-15T12:20:06.393Z,939.34
2016-12-15T12:20:34.093Z,939.39
2016-12-15T12:21:01.986Z,939.41
2016-12-15T12:21:29.677Z,939.33
2016-12-15T12:21:57.475Z,939.27
2016-12-15T12:22:25.176Z,939.4
2016-12-15T12:22:52.951Z,939.31
2016-12-15T12:23:20.639Z,939.38
2016-12-15T12:23:48.435Z,939.42
2016-12-15T12:24:16.246Z,939.32
2016-12-15T12:24:43.969Z,939.36
2016-12-15T12:25:11.910Z,939.38
2016-12-15T12:25:39.631Z,939.39
2016-12-15T12:26:07.510Z,939.49
2016-12-15T12:26:35.208Z,939.37
2016-12-15T12:27:02.997Z,939.37
2016-12-15T12:28:13.217Z,939.31
2016-12-15T12:28:41.014Z,939.38
2016-12-15T12:29:08.926Z,939.45
